createdAt,value
2018-03-30T00:00:00.653Z,87.30
2018-03-30T00:02:27.429Z,86.90
2018-03-30T00:04:54.401Z,86.50
2018-03-30T00:07:21.321Z,86.50
2018-03-30T00:09:56.520Z,86.00
2018-03-30T00:12:22.786Z,87.50
2018-03-30T00:14:50.474Z,86.80
2018-03-30T00:17:18.136Z,87.00
2018-03-30T00:19:44.411Z,87.00
2018-03-30T00:22:10.658Z,87.00
2018-03-30T00:24:36.940Z,87.10
2018-03-30T00:27:03.915Z,86.80
2018-03-30T00:29:30.473Z,86.30
2018-03-30T00:31:57.289Z,86.40
2018-03-30T00:34:24.289Z,86.90
2018-03-30T00:36:50.609Z,86.90
2018-03-30T00:39:16.875Z,86.90
2018-03-30T00:41:43.135Z,86.90
2018-03-30T00:44:11.024Z,86.60
2018-03-30T00:46:38.014Z,86.20
2018-03-30T00:49:05.071Z,86.20
2018-03-30T00:51:31.851Z,86.30
2018-03-30T00:53:58.108Z,85.30
2018-03-30T00:56:25.545Z,85.20
2018-03-30T00:58:52.090Z,85.30
2018-03-30T01:01:18.949Z,85.70
2018-03-30T01:03:46.715Z,85.40
2018-03-30T01:06:14.376Z,86.30
2018-03-30T01:08:40.627Z,85.60
2018-03-30T01:11:09.516Z,84.70
2018-03-30T01:13:37.281Z,84.90
2018-03-30T01:16:04.300Z,85.00
2018-03-30T01:18:30.569Z,84.90
2018-03-30T01:20:57.682Z,84.90
2018-03-30T01:23:23.940Z,84.90
2018-03-30T01:25:51.128Z,85.30
2018-03-30T01:28:18.070Z,85.60
2018-03-30T01:30:45.095Z,86.50
2018-03-30T01:33:12.089Z,84.50
2018-03-30T01:35:38.713Z,84.60
2018-03-30T01:38:05.706Z,85.10
2018-03-30T01:40:32.038Z,85.20
2018-03-30T01:42:58.651Z,85.00
2018-03-30T01:45:26.220Z,84.50
2018-03-30T01:47:53.835Z,84.50
2018-03-30T01:50:20.521Z,84.50
2018-03-30T01:52:47.515Z,84.70
2018-03-30T01:55:14.210Z,84.80
2018-03-30T01:57:41.262Z,84.50
2018-03-30T02:00:08.971Z,85.30
2018-03-30T02:02:35.561Z,84.50
2018-03-30T02:05:01.930Z,84.30
2018-03-30T02:07:28.768Z,84.10
2018-03-30T02:09:55.761Z,84.10
2018-03-30T02:12:22.562Z,84.00
2018-03-30T02:14:50.030Z,84.10
2018-03-30T02:17:17.299Z,84.20
2018-03-30T02:19:43.545Z,84.20
2018-03-30T02:22:09.820Z,84.70
2018-03-30T02:24:36.824Z,85.20
2018-03-30T02:27:03.509Z,84.90
2018-03-30T02:29:29.765Z,84.80
2018-03-30T02:31:56.018Z,84.50
2018-03-30T02:34:23.379Z,84.40
2018-03-30T02:36:50.362Z,85.30
2018-03-30T02:39:16.732Z,85.30
2018-03-30T02:41:43.312Z,84.80
2018-03-30T02:44:10.074Z,85.10
2018-03-30T02:46:36.328Z,85.30
2018-03-30T02:49:03.001Z,85.50
2018-03-30T02:51:29.671Z,85.30
2018-03-30T02:53:57.083Z,85.80
2018-03-30T02:56:23.334Z,85.80
2018-03-30T02:58:49.604Z,86.20
2018-03-30T03:01:16.597Z,85.80
2018-03-30T03:03:43.497Z,85.80
2018-03-30T03:06:10.458Z,86.10
2018-03-30T03:08:38.225Z,85.60
2018-03-30T03:11:05.229Z,85.60
2018-03-30T03:13:32.163Z,85.60
2018-03-30T03:15:58.409Z,85.50
2018-03-30T03:18:24.653Z,85.80
2018-03-30T03:20:51.545Z,85.80
2018-03-30T03:23:19.310Z,85.20
2018-03-30T03:25:46.294Z,85.50
2018-03-30T03:28:12.547Z,85.00
2018-03-30T03:30:38.881Z,85.30
2018-03-30T03:33:05.120Z,85.20
2018-03-30T03:35:31.460Z,84.70
2018-03-30T03:37:57.736Z,85.30
2018-03-30T03:40:23.987Z,85.00
2018-03-30T03:42:51.011Z,84.70
2018-03-30T03:45:17.646Z,84.60
2018-03-30T03:47:45.453Z,85.30
2018-03-30T03:50:13.216Z,85.90
2018-03-30T03:52:40.666Z,85.80
2018-03-30T03:55:07.662Z,85.20
2018-03-30T03:57:33.918Z,85.10
2018-03-30T04:00:15.434Z,84.70
2018-03-30T04:02:42.186Z,84.40
2018-03-30T04:05:09.177Z,83.30
2018-03-30T04:07:35.946Z,83.20
2018-03-30T04:10:02.211Z,83.10
2018-03-30T04:12:29.222Z,82.90
2018-03-30T04:14:56.616Z,83.50
2018-03-30T04:17:23.531Z,83.40
2018-03-30T04:19:50.228Z,84.10
2018-03-30T04:22:16.858Z,83.70
2018-03-30T04:24:43.102Z,84.10
2018-03-30T04:27:10.128Z,84.00
2018-03-30T04:29:36.362Z,84.00
2018-03-30T04:32:02.644Z,84.00
2018-03-30T04:34:28.988Z,84.00
2018-03-30T04:36:55.603Z,84.10
2018-03-30T04:39:23.654Z,84.20
2018-03-30T04:41:49.894Z,84.20
2018-03-30T04:44:16.978Z,84.10
2018-03-30T04:46:44.326Z,84.40
2018-03-30T04:49:11.334Z,84.60
2018-03-30T04:51:38.238Z,84.60
2018-03-30T04:54:05.234Z,84.70
2018-03-30T04:56:31.509Z,84.70
2018-03-30T04:58:58.822Z,84.80
2018-03-30T05:01:25.105Z,84.80
2018-03-30T05:03:52.570Z,85.00
2018-03-30T05:06:20.138Z,85.00
2018-03-30T05:08:47.116Z,84.60
2018-03-30T05:11:13.371Z,84.60
2018-03-30T05:13:40.322Z,84.50
2018-03-30T05:16:06.954Z,84.10
2018-03-30T05:18:33.647Z,84.50
2018-03-30T05:21:00.014Z,84.50
2018-03-30T05:23:26.269Z,84.90
2018-03-30T05:25:52.734Z,83.50
2018-03-30T05:28:18.982Z,82.90
2018-03-30T05:30:45.381Z,82.90
2018-03-30T05:33:11.934Z,83.40
2018-03-30T05:35:38.179Z,83.50
2018-03-30T05:38:04.439Z,83.10
2018-03-30T05:40:31.298Z,83.00
2018-03-30T05:42:57.643Z,83.40
2018-03-30T05:45:25.070Z,82.80
2018-03-30T05:47:51.941Z,82.90
2018-03-30T05:50:18.694Z,83.40
2018-03-30T05:52:46.258Z,82.60
2018-03-30T05:55:13.280Z,82.30
2018-03-30T05:57:39.523Z,82.20
2018-03-30T06:00:06.957Z,82.40
2018-03-30T06:02:33.758Z,82.80
2018-03-30T06:05:00.813Z,82.50
2018-03-30T06:07:28.477Z,82.30
2018-03-30T06:09:55.451Z,81.90
2018-03-30T06:12:21.732Z,81.90
2018-03-30T06:14:48.550Z,81.90
2018-03-30T06:17:15.122Z,81.20
2018-03-30T06:19:41.378Z,80.90
2018-03-30T06:22:07.621Z,80.90
2018-03-30T06:24:34.975Z,80.50
2018-03-30T06:27:03.546Z,80.20
2018-03-30T06:29:29.790Z,80.20
2018-03-30T06:31:56.071Z,80.50
2018-03-30T06:34:22.683Z,80.40
2018-03-30T06:36:49.674Z,80.20
2018-03-30T06:39:16.045Z,80.20
2018-03-30T06:41:42.594Z,79.70
2018-03-30T06:44:10.622Z,80.00
2018-03-30T06:46:37.998Z,80.00
2018-03-30T06:49:04.242Z,79.70
2018-03-30T06:51:31.028Z,80.00
2018-03-30T06:53:58.014Z,79.30
2018-03-30T06:56:24.265Z,79.20
2018-03-30T06:58:50.531Z,78.70
2018-03-30T07:01:17.090Z,78.80
2018-03-30T07:03:44.170Z,78.40
2018-03-30T07:06:10.762Z,78.30
2018-03-30T07:08:37.010Z,78.50
2018-03-30T07:11:04.168Z,78.00
2018-03-30T07:13:32.081Z,78.40
2018-03-30T07:15:58.333Z,78.20
2018-03-30T07:18:24.586Z,77.40
2018-03-30T07:20:51.115Z,77.90
2018-03-30T07:23:18.318Z,77.00
2018-03-30T07:25:45.299Z,74.80
2018-03-30T07:28:11.549Z,74.70
2018-03-30T07:30:37.827Z,75.70
2018-03-30T07:33:04.913Z,74.90
2018-03-30T07:35:31.258Z,74.80
2018-03-30T07:37:57.513Z,75.50
2018-03-30T07:40:23.770Z,75.90
2018-03-30T07:42:50.010Z,75.00
2018-03-30T07:45:16.638Z,74.30
2018-03-30T07:47:43.535Z,75.50
2018-03-30T07:50:10.282Z,74.60
2018-03-30T07:52:36.530Z,74.80
2018-03-30T07:55:02.837Z,74.00
2018-03-30T07:57:30.376Z,74.20
2018-03-30T07:59:56.618Z,74.30
2018-03-30T08:02:22.876Z,74.10
2018-03-30T08:04:50.226Z,73.80
2018-03-30T08:07:17.721Z,74.10
2018-03-30T08:09:44.333Z,74.10
2018-03-30T08:12:11.785Z,74.20
2018-03-30T08:14:38.838Z,74.10
2018-03-30T08:17:05.220Z,73.60
2018-03-30T08:19:31.487Z,73.50
2018-03-30T08:21:57.765Z,71.80
2018-03-30T08:24:24.796Z,71.80
2018-03-30T08:26:51.877Z,71.60
2018-03-30T08:29:18.412Z,71.60
2018-03-30T08:31:44.677Z,71.60
2018-03-30T08:34:10.914Z,71.70
2018-03-30T08:36:37.311Z,71.20
2018-03-30T08:39:05.459Z,71.50
2018-03-30T08:41:31.709Z,71.40
2018-03-30T08:43:59.178Z,70.40
2018-03-30T08:46:26.854Z,70.20
2018-03-30T08:48:54.186Z,70.30
2018-03-30T08:51:21.170Z,70.10
2018-03-30T08:53:48.163Z,69.10
2018-03-30T08:56:14.859Z,69.00
2018-03-30T08:58:41.848Z,68.50
2018-03-30T09:01:08.278Z,68.40
2018-03-30T09:03:35.205Z,68.60
2018-03-30T09:06:03.164Z,68.70
2018-03-30T09:08:30.851Z,67.00
2018-03-30T09:10:57.834Z,65.90
2018-03-30T09:13:24.077Z,65.60
2018-03-30T09:15:50.344Z,66.50
2018-03-30T09:18:16.596Z,67.40
2018-03-30T09:20:43.670Z,66.30
2018-03-30T09:23:11.009Z,66.30
2018-03-30T09:25:38.002Z,65.10
2018-03-30T09:28:04.251Z,64.90
2018-03-30T09:30:30.827Z,63.60
2018-03-30T09:32:57.819Z,65.50
2018-03-30T09:35:24.180Z,65.90
2018-03-30T09:37:50.692Z,63.30
2018-03-30T09:40:16.942Z,62.50
2018-03-30T09:42:43.204Z,64.90
2018-03-30T09:45:09.834Z,64.30
2018-03-30T09:47:36.715Z,62.50
2018-03-30T09:50:03.573Z,63.00
2018-03-30T09:52:31.236Z,63.50
2018-03-30T09:54:58.230Z,60.30
2018-03-30T09:57:24.491Z,60.30
2018-03-30T09:59:51.066Z,61.90
2018-03-30T10:02:19.863Z,58.80
2018-03-30T10:04:53.468Z,60.10
2018-03-30T10:07:20.907Z,60.20
2018-03-30T10:09:47.166Z,60.40
2018-03-30T10:12:14.147Z,59.70
2018-03-30T10:14:40.647Z,59.60
2018-03-30T10:17:07.675Z,59.40
2018-03-30T10:19:34.003Z,59.20
2018-03-30T10:22:00.579Z,58.50
2018-03-30T10:24:27.572Z,59.00
2018-03-30T10:26:53.822Z,58.80
2018-03-30T10:29:20.332Z,60.10
2018-03-30T10:31:46.882Z,58.30
2018-03-30T10:34:13.126Z,59.40
2018-03-30T10:36:39.402Z,58.20
2018-03-30T10:39:05.693Z,55.00
2018-03-30T10:41:32.708Z,58.70
2018-03-30T10:43:59.655Z,58.10
2018-03-30T10:46:26.659Z,57.60
2018-03-30T10:48:53.446Z,57.50
2018-03-30T10:51:20.913Z,58.60
2018-03-30T10:53:48.482Z,57.80
2018-03-30T10:56:15.479Z,56.70
2018-03-30T10:58:41.717Z,56.50
2018-03-30T11:01:08.006Z,56.60
2018-03-30T11:03:35.674Z,55.50
2018-03-30T11:06:03.221Z,54.80
2018-03-30T11:08:29.467Z,54.80
2018-03-30T11:10:56.514Z,57.60
2018-03-30T11:13:23.878Z,56.60
2018-03-30T11:15:50.901Z,56.80
2018-03-30T11:18:17.678Z,56.70
2018-03-30T11:20:44.686Z,54.30
2018-03-30T11:23:10.941Z,54.30
2018-03-30T11:25:37.210Z,52.60
2018-03-30T11:28:03.467Z,52.40
2018-03-30T11:30:29.819Z,54.00
2018-03-30T11:32:56.413Z,53.50
2018-03-30T11:35:23.402Z,55.50
2018-03-30T11:37:49.667Z,55.40
2018-03-30T11:40:16.230Z,53.80
2018-03-30T11:42:42.710Z,54.80
2018-03-30T11:45:09.609Z,53.60
2018-03-30T11:47:36.840Z,54.60
2018-03-30T11:50:04.101Z,54.90
2018-03-30T11:52:31.251Z,54.40
2018-03-30T11:54:57.611Z,55.30
2018-03-30T11:57:23.987Z,53.30
2018-03-30T11:59:51.075Z,52.70
2018-03-30T12:02:18.157Z,53.40
2018-03-30T12:04:44.488Z,51.50
2018-03-30T12:07:11.728Z,51.40
2018-03-30T12:09:38.036Z,51.40
2018-03-30T12:12:04.376Z,52.80
2018-03-30T12:14:31.040Z,51.00
2018-03-30T12:16:58.091Z,51.10
2018-03-30T12:19:24.414Z,49.10
2018-03-30T12:21:50.731Z,50.40
2018-03-30T12:24:17.312Z,49.80
2018-03-30T12:26:43.627Z,50.20
2018-03-30T12:29:10.043Z,51.90
2018-03-30T12:31:36.723Z,52.30
2018-03-30T12:34:03.080Z,50.00
2018-03-30T12:36:29.403Z,49.10
2018-03-30T12:38:56.272Z,48.90
2018-03-30T12:41:23.511Z,49.30
2018-03-30T12:43:49.835Z,49.10
2018-03-30T12:46:17.046Z,51.00
2018-03-30T12:48:45.172Z,48.80
2018-03-30T12:51:12.541Z,48.70
2018-03-30T12:53:38.851Z,47.40
2018-03-30T12:56:05.162Z,46.80
2018-03-30T12:58:32.778Z,47.70
2018-03-30T13:00:59.112Z,47.20
2018-03-30T13:03:25.436Z,47.80
2018-03-30T13:05:52.851Z,46.50
2018-03-30T13:08:19.915Z,44.60
2018-03-30T13:10:46.232Z,44.70
2018-03-30T13:13:13.551Z,45.80
2018-03-30T13:15:40.920Z,45.70
2018-03-30T13:18:07.284Z,46.20
2018-03-30T13:20:34.340Z,46.50
2018-03-30T13:23:01.494Z,47.30
2018-03-30T13:25:28.556Z,47.40
2018-03-30T13:27:55.705Z,46.50
2018-03-30T13:30:23.043Z,47.80
2018-03-30T13:32:49.368Z,47.80
2018-03-30T13:35:16.523Z,47.00
2018-03-30T13:37:42.839Z,47.70
2018-03-30T13:40:09.152Z,48.10
2018-03-30T13:42:36.419Z,47.50
2018-03-30T13:45:04.627Z,47.40
2018-03-30T13:47:31.987Z,46.50
2018-03-30T13:49:58.412Z,46.70
2018-03-30T13:52:32.440Z,46.70
2018-03-30T13:54:59.600Z,47.60
2018-03-30T13:57:30.632Z,48.00
2018-03-30T13:59:57.011Z,49.20
2018-03-30T14:02:38.084Z,49.90
2018-03-30T14:08:07.767Z,50.00
2018-03-30T14:10:35.744Z,50.90
2018-03-30T14:13:04.606Z,50.90
2018-03-30T14:15:32.795Z,49.90
2018-03-30T14:18:03.159Z,49.40
2018-03-30T14:20:34.592Z,49.80
2018-03-30T14:23:12.907Z,49.90
2018-03-30T14:25:42.003Z,49.70
2018-03-30T14:28:28.028Z,49.40
2018-03-30T14:30:56.275Z,50.50
2018-03-30T14:33:24.411Z,50.40
2018-03-30T14:36:02.339Z,51.10
2018-03-30T14:38:36.608Z,52.10
2018-03-30T14:41:03.812Z,52.70
2018-03-30T14:43:31.956Z,53.10
2018-03-30T14:46:06.020Z,53.30
2018-03-30T14:48:35.727Z,53.10
2018-03-30T14:51:08.573Z,52.90
2018-03-30T14:53:36.588Z,52.90
2018-03-30T14:56:15.719Z,52.50
2018-03-30T14:58:45.811Z,52.30
2018-03-30T15:01:14.145Z,51.80
2018-03-30T15:03:59.588Z,52.10
2018-03-30T15:06:28.785Z,52.10
2018-03-30T15:12:19.929Z,52.40
2018-03-30T15:15:12.760Z,53.00
2018-03-30T15:17:40.844Z,52.90
2018-03-30T15:20:14.464Z,53.90
2018-03-30T15:22:53.440Z,54.20
2018-03-30T15:25:24.725Z,54.20
2018-03-30T15:27:53.658Z,55.20
2018-03-30T15:30:30.201Z,55.20
2018-03-30T15:33:02.606Z,55.40
2018-03-30T15:35:46.156Z,55.60
2018-03-30T15:38:13.515Z,55.70
2018-03-30T15:40:39.993Z,55.80
2018-03-30T15:43:08.810Z,56.60
2018-03-30T15:45:54.543Z,56.50
2018-03-30T15:48:21.676Z,56.80
2018-03-30T15:50:49.711Z,57.10
2018-03-30T15:53:17.328Z,56.90
2018-03-30T15:55:45.632Z,56.90
2018-03-30T15:58:13.471Z,58.10
2018-03-30T16:00:39.827Z,57.40
2018-03-30T16:03:06.172Z,57.80
2018-03-30T16:05:33.508Z,58.10
2018-03-30T16:08:00.801Z,58.10
2018-03-30T16:10:38.968Z,58.10
2018-03-30T16:13:05.384Z,58.10
2018-03-30T16:15:31.747Z,58.20
2018-03-30T16:17:58.495Z,58.60
2018-03-30T16:20:24.635Z,58.30
2018-03-30T16:22:50.851Z,58.60
2018-03-30T16:25:17.299Z,58.50
2018-03-30T16:27:43.407Z,60.90
2018-03-30T16:30:09.531Z,60.30
2018-03-30T16:32:36.212Z,60.20
2018-03-30T16:35:04.689Z,62.10
2018-03-30T16:37:31.747Z,61.20
2018-03-30T16:39:57.870Z,61.20
2018-03-30T16:42:23.980Z,61.00
2018-03-30T16:44:51.059Z,62.60
2018-03-30T16:47:18.008Z,62.80
2018-03-30T16:49:44.964Z,62.20
2018-03-30T16:52:11.912Z,62.60
2018-03-30T16:54:38.691Z,63.20
2018-03-30T16:57:05.611Z,63.60
2018-03-30T16:59:32.580Z,63.60
2018-03-30T17:02:00.272Z,63.80
2018-03-30T17:04:26.421Z,63.80
2018-03-30T17:06:53.310Z,65.40
2018-03-30T17:09:20.252Z,64.80
2018-03-30T17:11:46.369Z,65.20
2018-03-30T17:14:12.486Z,65.70
2018-03-30T17:16:38.957Z,65.90
2018-03-30T17:19:05.099Z,64.50
2018-03-30T17:21:31.353Z,66.80
2018-03-30T17:23:57.511Z,67.00
2018-03-30T17:26:23.625Z,65.80
2018-03-30T17:28:50.495Z,65.80
2018-03-30T17:31:16.915Z,65.90
2018-03-30T17:33:44.828Z,65.60
2018-03-30T17:36:10.956Z,65.60
2018-03-30T17:38:38.340Z,61.40
2018-03-30T17:41:04.475Z,60.90
2018-03-30T17:43:31.146Z,60.20
2018-03-30T17:45:58.987Z,56.40
2018-03-30T17:48:25.837Z,56.60
2018-03-30T17:50:52.787Z,55.80
2018-03-30T17:53:19.717Z,55.80
2018-03-30T17:55:46.587Z,51.60
2018-03-30T17:58:12.756Z,52.10
2018-03-30T18:00:39.650Z,51.40
2018-03-30T18:03:06.108Z,51.40
2018-03-30T18:05:32.224Z,50.70
2018-03-30T18:07:59.291Z,49.30
2018-03-30T18:10:26.877Z,50.30
2018-03-30T18:12:52.991Z,49.10
2018-03-30T18:15:19.112Z,50.80
2018-03-30T18:17:45.561Z,50.70
2018-03-30T18:20:11.683Z,49.50
2018-03-30T18:22:38.644Z,50.40
2018-03-30T18:25:04.849Z,50.70
2018-03-30T18:27:30.955Z,49.80
2018-03-30T18:29:57.108Z,50.10
2018-03-30T18:32:24.192Z,50.00
2018-03-30T18:34:50.364Z,50.60
2018-03-30T18:37:18.011Z,51.50
2018-03-30T18:39:44.943Z,51.50
2018-03-30T18:42:11.099Z,54.70
2018-03-30T18:44:38.019Z,57.00
2018-03-30T18:47:04.872Z,59.40
2018-03-30T18:49:31.820Z,60.80
2018-03-30T18:51:58.812Z,60.50
2018-03-30T18:54:26.645Z,60.60
2018-03-30T18:56:53.698Z,61.50
2018-03-30T18:59:19.808Z,62.70
2018-03-30T19:01:45.972Z,66.20
2018-03-30T19:04:12.114Z,65.30
2018-03-30T19:06:39.079Z,65.80
2018-03-30T19:09:07.532Z,66.00
2018-03-30T19:11:33.656Z,65.90
2018-03-30T19:13:59.768Z,66.50
2018-03-30T19:16:26.232Z,68.70
2018-03-30T19:18:52.360Z,69.40
2018-03-30T19:21:18.573Z,69.90
2018-03-30T19:23:45.444Z,71.10
2018-03-30T19:26:11.629Z,73.80
2018-03-30T19:28:39.237Z,71.80
2018-03-30T19:31:05.408Z,71.70
2018-03-30T19:33:32.265Z,71.80
2018-03-30T19:35:59.451Z,72.50
2018-03-30T19:38:26.225Z,72.60
2018-03-30T19:40:53.080Z,71.60
2018-03-30T19:43:19.956Z,71.40
2018-03-30T19:45:47.589Z,72.20
2018-03-30T19:48:14.464Z,72.40
2018-03-30T19:50:41.499Z,71.80
2018-03-30T19:53:07.727Z,73.00
2018-03-30T19:55:33.840Z,71.40
2018-03-30T19:58:00.012Z,70.90
2018-03-30T20:00:26.140Z,69.40
2018-03-30T20:02:52.389Z,67.90
2018-03-30T20:05:19.508Z,65.10
2018-03-30T20:07:46.468Z,65.00
2018-03-30T20:10:13.508Z,63.20
2018-03-30T20:12:39.640Z,62.30
2018-03-30T20:15:05.780Z,62.30
2018-03-30T20:17:32.219Z,61.40
2018-03-30T20:19:58.370Z,58.70
2018-03-30T20:22:25.214Z,58.40
2018-03-30T20:24:51.363Z,57.40
2018-03-30T20:27:18.993Z,56.70
2018-03-30T20:29:45.113Z,56.60
2018-03-30T20:32:11.228Z,56.80
2018-03-30T20:34:37.697Z,57.20
2018-03-30T20:37:04.848Z,56.90
2018-03-30T20:39:32.860Z,56.40
2018-03-30T20:42:01.344Z,56.30
2018-03-30T20:44:28.976Z,55.50
2018-03-30T20:46:55.824Z,55.40
2018-03-30T20:49:21.962Z,55.50
2018-03-30T20:51:49.826Z,56.30
2018-03-30T20:54:16.725Z,56.30
2018-03-30T20:56:43.569Z,55.50
2018-03-30T20:59:10.492Z,54.80
2018-03-30T21:01:37.588Z,55.70
2018-03-30T21:04:03.699Z,55.00
2018-03-30T21:06:31.324Z,55.40
2018-03-30T21:08:58.475Z,55.30
2018-03-30T21:11:24.687Z,56.80
2018-03-30T21:13:50.811Z,56.90
2018-03-30T21:16:17.179Z,56.70
2018-03-30T21:18:43.940Z,56.50
2018-03-30T21:21:10.196Z,56.50
2018-03-30T21:23:37.827Z,57.30
2018-03-30T21:26:03.949Z,57.20
2018-03-30T21:28:30.069Z,56.60
2018-03-30T21:30:56.528Z,55.30
2018-03-30T21:33:22.636Z,55.80
2018-03-30T21:35:49.615Z,54.20
2018-03-30T21:38:16.467Z,54.70
2018-03-30T21:40:43.315Z,53.60
2018-03-30T21:43:10.144Z,53.60
2018-03-30T21:45:37.003Z,55.40
2018-03-30T21:48:03.956Z,55.20
2018-03-30T21:50:30.084Z,55.70
2018-03-30T21:52:57.040Z,55.90
2018-03-30T21:55:23.155Z,56.80
2018-03-30T21:57:49.259Z,57.00
2018-03-30T22:00:15.740Z,56.80
2018-03-30T22:02:41.924Z,56.60
2018-03-30T22:05:08.140Z,56.90
2018-03-30T22:07:35.867Z,57.10
2018-03-30T22:10:04.313Z,57.10
2018-03-30T22:12:30.435Z,57.00
2018-03-30T22:14:57.296Z,56.60
2018-03-30T22:17:23.676Z,56.60
2018-03-30T22:19:49.788Z,56.40
2018-03-30T22:22:16.759Z,57.00
2018-03-30T22:24:42.867Z,56.80
2018-03-30T22:27:09.033Z,56.90
2018-03-30T22:29:35.467Z,56.50
2018-03-30T22:32:02.408Z,56.70
2018-03-30T22:34:29.678Z,56.90
2018-03-30T22:36:56.520Z,56.70
2018-03-30T22:39:23.671Z,56.50
2018-03-30T22:41:49.792Z,57.20
2018-03-30T22:44:16.767Z,57.30
2018-03-30T22:46:43.699Z,57.20
2018-03-30T22:49:09.844Z,57.60
2018-03-30T22:51:36.803Z,57.70
2018-03-30T22:54:02.919Z,57.90
2018-03-30T22:56:29.872Z,57.80
2018-03-30T22:58:56.003Z,58.10
2018-03-30T23:01:22.137Z,58.00
2018-03-30T23:03:48.571Z,58.40
2018-03-30T23:06:15.523Z,58.30
2018-03-30T23:08:42.987Z,58.70
2018-03-30T23:11:10.144Z,58.70
2018-03-30T23:13:36.260Z,59.10
2018-03-30T23:16:02.369Z,60.30
2018-03-30T23:18:29.459Z,59.40
2018-03-30T23:20:55.583Z,58.10
2018-03-30T23:23:21.692Z,57.80
2018-03-30T23:25:48.160Z,57.00
2018-03-30T23:28:14.272Z,56.20
2018-03-30T23:30:41.347Z,55.50
2018-03-30T23:33:08.907Z,55.40
2018-03-30T23:35:35.032Z,56.40
2018-03-30T23:38:01.141Z,56.40
2018-03-30T23:40:27.292Z,56.70
2018-03-30T23:42:53.413Z,56.50
2018-03-30T23:45:20.488Z,56.30
2018-03-30T23:47:47.243Z,56.80
2018-03-30T23:50:13.349Z,57.30
2018-03-30T23:52:40.107Z,57.50
2018-03-30T23:55:06.247Z,57.90
2018-03-30T23:57:32.370Z,58.50
2018-03-30T23:59:58.818Z,59.00
